createdAt,value
2023-01-19T00:00:59.301Z,96416.47
2023-01-19T00:03:26.747Z,96415.91
2023-01-19T00:05:53.858Z,96414.25
2023-01-19T00:08:20.962Z,96418.81
2023-01-19T00:10:50.357Z,96418.31
2023-01-19T00:13:17.566Z,96420.66
2023-01-19T00:15:45.456Z,96432.28
2023-01-19T00:18:12.560Z,96433.66
2023-01-19T00:20:40.343Z,96437.41
2023-01-19T00:23:07.731Z,96430.97
2023-01-19T00:25:35.075Z,96438.19
2023-01-19T00:28:03.618Z,96435.75
2023-01-19T00:30:30.739Z,96445.66
2023-01-19T00:32:58.363Z,96446.22
2023-01-19T00:35:26.040Z,96444.66
2023-01-19T00:37:53.161Z,96443.34
2023-01-19T00:40:20.216Z,96453.34
2023-01-19T00:42:47.291Z,96446.94
2023-01-19T00:45:17.458Z,96453.91
2023-01-19T00:47:45.366Z,96459.84
2023-01-19T00:50:13.914Z,96470.25
2023-01-19T00:52:41.242Z,96480.69
2023-01-19T00:55:09.928Z,96479.53
2023-01-19T00:57:37.120Z,96482.47
2023-01-19T01:00:05.927Z,96463.34
2023-01-19T01:02:34.566Z,96498.53
2023-01-19T01:05:01.734Z,96505.78
2023-01-19T01:07:29.958Z,96510.63
2023-01-19T01:09:57.049Z,96504.19
2023-01-19T01:12:24.264Z,96502.38
2023-01-19T01:14:51.380Z,96502.88
2023-01-19T01:17:18.702Z,96504.53
2023-01-19T01:19:47.345Z,96513.38
2023-01-19T01:22:14.435Z,96514.97
2023-01-19T01:24:41.522Z,96518.72
2023-01-19T01:27:08.771Z,96527.56
2023-01-19T01:29:35.879Z,96525.97
2023-01-19T01:32:02.952Z,96521.25
2023-01-19T01:34:30.125Z,96534.13
2023-01-19T01:36:58.621Z,96530.94
2023-01-19T01:39:25.826Z,96530.38
2023-01-19T01:41:52.882Z,96538.66
2023-01-19T01:44:46.511Z,96544.03
2023-01-19T01:47:14.068Z,96541.97
2023-01-19T01:49:41.434Z,96545.91
2023-01-19T01:52:10.943Z,96553.09
2023-01-19T01:54:38.085Z,96555.44
2023-01-19T01:57:08.804Z,96554.19
2023-01-19T01:59:39.001Z,96562.47
2023-01-19T02:02:10.164Z,96563.81
2023-01-19T02:04:38.471Z,96557.66
2023-01-19T02:07:05.744Z,96554.97
2023-01-19T02:09:36.883Z,96549.97
2023-01-19T02:12:04.878Z,96559.56
2023-01-19T02:14:32.115Z,96557.16
2023-01-19T02:16:59.283Z,96570.53
2023-01-19T02:19:31.007Z,96551.03
2023-01-19T02:22:04.156Z,96568.66
2023-01-19T02:24:32.710Z,96562.00
2023-01-19T02:27:00.247Z,96560.16
2023-01-19T02:29:28.718Z,96562.34
2023-01-19T02:31:56.007Z,96566.66
2023-01-19T02:34:23.259Z,96567.50
2023-01-19T02:36:53.804Z,96573.09
2023-01-19T02:39:27.024Z,96571.72
2023-01-19T02:42:00.368Z,96579.06
2023-01-19T02:44:29.705Z,96578.19
2023-01-19T02:46:57.001Z,96581.75
2023-01-19T02:49:27.827Z,96585.97
2023-01-19T02:51:55.007Z,96585.69
2023-01-19T02:54:43.885Z,96578.03
2023-01-19T02:57:29.079Z,96581.75
2023-01-19T03:00:13.081Z,96574.47
2023-01-19T03:02:54.365Z,96581.81
2023-01-19T03:05:32.949Z,96590.47
2023-01-19T03:08:11.858Z,96581.16
2023-01-19T03:10:47.471Z,96582.50
2023-01-19T03:13:24.401Z,96579.91
2023-01-19T03:15:57.078Z,96585.34
2023-01-19T03:18:27.689Z,96575.34
2023-01-19T03:20:59.703Z,96580.72
2023-01-19T03:23:31.326Z,96581.66
2023-01-19T03:26:01.436Z,96575.72
2023-01-19T03:28:30.759Z,96584.34
2023-01-19T03:31:01.824Z,96561.91
2023-01-19T03:33:32.839Z,96576.72
2023-01-19T03:36:04.927Z,96578.94
2023-01-19T03:38:37.358Z,96581.06
2023-01-19T03:41:09.479Z,96578.09
2023-01-19T03:43:40.086Z,96578.31
2023-01-19T03:46:08.586Z,96573.59
2023-01-19T03:48:35.775Z,96579.13
2023-01-19T03:51:04.665Z,96571.50
2023-01-19T03:53:31.760Z,96572.72
2023-01-19T03:55:59.070Z,96573.00
2023-01-19T03:58:26.151Z,96578.38
2023-01-19T04:00:54.684Z,96573.75
2023-01-19T04:03:21.839Z,96569.25
2023-01-19T04:05:48.888Z,96582.09
2023-01-19T04:08:15.970Z,96573.75
2023-01-19T04:10:43.115Z,96574.91
2023-01-19T04:13:10.209Z,96578.19
2023-01-19T04:15:37.313Z,96586.38
2023-01-19T04:18:06.118Z,96580.28
2023-01-19T04:20:33.252Z,96580.44
2023-01-19T04:23:01.933Z,96581.22
2023-01-19T04:25:29.508Z,96578.63
2023-01-19T04:27:56.781Z,96582.13
2023-01-19T04:30:24.545Z,96577.59
2023-01-19T04:32:51.621Z,96571.72
2023-01-19T04:35:20.008Z,96567.50
2023-01-19T04:37:47.072Z,96566.72
2023-01-19T04:40:14.398Z,96517.75
2023-01-19T04:42:43.231Z,96566.00
2023-01-19T04:45:11.330Z,96558.50
2023-01-19T04:47:38.609Z,96560.13
2023-01-19T04:50:07.322Z,96563.09
2023-01-19T04:52:36.273Z,96566.84
2023-01-19T04:55:04.259Z,96564.81
2023-01-19T04:57:31.748Z,96565.03
2023-01-19T04:59:59.176Z,96552.34
2023-01-19T05:02:26.281Z,96532.38
2023-01-19T05:04:53.473Z,96569.03
2023-01-19T05:07:20.561Z,96573.47
2023-01-19T05:09:48.996Z,96576.28
2023-01-19T05:12:16.286Z,96572.03
2023-01-19T05:14:43.397Z,96574.25
2023-01-19T05:17:10.560Z,96584.47
2023-01-19T05:19:37.776Z,96587.81
2023-01-19T05:22:05.849Z,96584.47
2023-01-19T05:24:33.061Z,96589.94
2023-01-19T05:27:01.682Z,96593.84
2023-01-19T05:29:28.744Z,96596.38
2023-01-19T05:31:55.841Z,96595.59
2023-01-19T05:34:22.945Z,96599.72
2023-01-19T05:36:50.007Z,96598.66
2023-01-19T05:39:17.219Z,96584.34
2023-01-19T05:41:44.309Z,96600.00
2023-01-19T05:44:12.882Z,96607.94
2023-01-19T05:46:40.467Z,96598.91
2023-01-19T05:49:07.887Z,96621.91
2023-01-19T05:51:35.787Z,96610.16
2023-01-19T05:54:02.913Z,96608.88
2023-01-19T05:56:30.025Z,96626.53
2023-01-19T05:58:57.121Z,96630.66
2023-01-19T06:01:26.179Z,96631.25
2023-01-19T06:03:53.262Z,96640.16
2023-01-19T06:06:20.460Z,96640.50
2023-01-19T06:08:47.685Z,96641.59
2023-01-19T06:11:14.825Z,96640.50
2023-01-19T06:13:42.271Z,96641.03
2023-01-19T06:16:10.023Z,96642.19
2023-01-19T06:18:38.924Z,96646.16
2023-01-19T06:21:07.341Z,96657.41
2023-01-19T06:23:36.227Z,96637.66
2023-01-19T06:26:03.895Z,96667.06
2023-01-19T06:28:31.033Z,96660.97
2023-01-19T06:30:58.232Z,96670.91
2023-01-19T06:33:25.985Z,96667.16
2023-01-19T06:35:54.923Z,96676.59
2023-01-19T06:38:22.217Z,96678.47
2023-01-19T06:40:52.899Z,96682.00
2023-01-19T06:43:20.444Z,96685.50
2023-01-19T06:45:48.054Z,96694.84
2023-01-19T06:48:15.164Z,96690.31
2023-01-19T06:50:45.010Z,96700.50
2023-01-19T06:53:13.934Z,96710.16
2023-01-19T06:55:41.289Z,96707.53
2023-01-19T06:58:08.941Z,96712.94
2023-01-19T07:00:36.046Z,96713.75
2023-01-19T07:03:03.516Z,96718.59
2023-01-19T07:05:30.847Z,96722.66
2023-01-19T07:07:58.046Z,96728.81
2023-01-19T07:10:26.660Z,96731.25
2023-01-19T07:13:13.785Z,96732.50
2023-01-19T07:15:41.502Z,96741.06
2023-01-19T07:18:08.769Z,96738.66
2023-01-19T07:20:36.380Z,96740.28
2023-01-19T07:23:04.055Z,96749.97
2023-01-19T07:25:32.474Z,96747.22
2023-01-19T07:28:00.267Z,96748.06
2023-01-19T07:30:28.244Z,96752.16
2023-01-19T07:32:56.084Z,96760.97
2023-01-19T07:35:23.398Z,96761.25
2023-01-19T07:37:50.808Z,96752.94
2023-01-19T07:40:18.089Z,96750.53
2023-01-19T07:42:50.417Z,96759.09
2023-01-19T07:45:18.514Z,96766.63
2023-01-19T07:47:46.026Z,96765.03
2023-01-19T07:50:13.148Z,96766.13
2023-01-19T07:52:40.581Z,96763.25
2023-01-19T07:55:08.991Z,96766.47
2023-01-19T07:57:36.372Z,96765.16
2023-01-19T08:00:05.928Z,96772.09
2023-01-19T08:02:33.040Z,96778.28
2023-01-19T08:05:00.151Z,96775.38
2023-01-19T08:07:27.412Z,96776.13
2023-01-19T08:09:54.501Z,96777.97
2023-01-19T08:12:21.589Z,96783.56
2023-01-19T08:14:48.671Z,96787.31
2023-01-19T08:17:17.108Z,96781.44
2023-01-19T08:19:44.204Z,96762.47
2023-01-19T08:22:11.263Z,96794.28
2023-01-19T08:24:38.417Z,96795.63
2023-01-19T08:27:06.096Z,96794.84
2023-01-19T08:29:33.172Z,96787.66
2023-01-19T08:32:00.352Z,96798.88
2023-01-19T08:34:29.131Z,96793.25
2023-01-19T08:36:56.280Z,96799.69
2023-01-19T08:39:23.346Z,96799.94
2023-01-19T08:41:51.182Z,96789.03
2023-01-19T08:44:18.491Z,96797.09
2023-01-19T08:46:45.630Z,96784.81
2023-01-19T08:49:12.894Z,96792.78
2023-01-19T08:51:41.346Z,96801.13
2023-01-19T08:54:08.502Z,96796.84
2023-01-19T08:56:35.606Z,96796.84
2023-01-19T08:59:09.780Z,96793.91
2023-01-19T09:01:37.767Z,96803.22
2023-01-19T09:04:05.463Z,96800.78
2023-01-19T09:06:32.603Z,96802.41
2023-01-19T09:09:01.262Z,96804.03
2023-01-19T09:11:28.450Z,96765.63
2023-01-19T09:13:55.535Z,96810.22
2023-01-19T09:16:22.666Z,96806.25
2023-01-19T09:18:49.754Z,96808.09
2023-01-19T09:21:16.851Z,96813.16
2023-01-19T09:23:43.979Z,96810.50
2023-01-19T09:26:12.470Z,96817.69
2023-01-19T09:28:39.554Z,96815.81
2023-01-19T09:31:07.815Z,96822.50
2023-01-19T09:33:35.063Z,96821.97
2023-01-19T09:36:02.166Z,96828.94
2023-01-19T09:38:29.362Z,96829.50
2023-01-19T09:40:56.840Z,96838.09
2023-01-19T09:43:34.860Z,96826.31
2023-01-19T09:46:03.753Z,96833.53
2023-01-19T09:48:42.156Z,96831.97
2023-01-19T09:51:15.465Z,96833.31
2023-01-19T09:53:52.391Z,96827.09
2023-01-19T09:56:20.516Z,96828.13
2023-01-19T09:58:50.277Z,96827.59
2023-01-19T10:01:37.918Z,96828.94
2023-01-19T10:04:34.208Z,96826.56
2023-01-19T10:07:18.567Z,96807.38
2023-01-19T10:10:11.243Z,96822.53
2023-01-19T10:12:48.801Z,96828.94
2023-01-19T10:15:29.228Z,96830.81
2023-01-19T10:18:11.923Z,96826.00
2023-01-19T10:20:43.387Z,96829.44
2023-01-19T10:23:24.209Z,96833.75
2023-01-19T10:25:52.088Z,96826.72
2023-01-19T10:28:25.429Z,96818.91
2023-01-19T10:30:55.185Z,96825.94
2023-01-19T10:33:22.372Z,96827.59
2023-01-19T10:35:49.751Z,96803.25
2023-01-19T10:38:17.865Z,96821.41
2023-01-19T10:40:52.161Z,96818.72
2023-01-19T10:43:37.641Z,96814.97
2023-01-19T10:46:20.500Z,96817.84
2023-01-19T10:48:50.053Z,96810.09
2023-01-19T10:51:17.568Z,96807.13
2023-01-19T10:53:57.110Z,96812.72
2023-01-19T10:56:27.580Z,96808.97
2023-01-19T10:58:54.667Z,96821.34
2023-01-19T11:01:25.167Z,96816.50
2023-01-19T11:03:53.540Z,96821.81
2023-01-19T11:06:23.593Z,96807.88
2023-01-19T11:08:53.053Z,96783.88
2023-01-19T11:11:21.843Z,96788.69
2023-01-19T11:14:04.887Z,96804.97
2023-01-19T11:16:35.101Z,96803.03
2023-01-19T11:19:02.509Z,96797.97
2023-01-19T11:21:31.910Z,96799.56
2023-01-19T11:24:02.185Z,96808.22
2023-01-19T11:26:32.845Z,96796.97
2023-01-19T11:29:02.149Z,96792.41
2023-01-19T11:31:35.741Z,96784.84
2023-01-19T11:34:04.445Z,96793.16
2023-01-19T11:36:33.625Z,96785.13
2023-01-19T11:39:19.206Z,96788.81
2023-01-19T11:41:50.713Z,96794.69
2023-01-19T11:44:21.863Z,96784.22
2023-01-19T11:46:54.591Z,96781.88
2023-01-19T11:49:29.780Z,96791.56
2023-01-19T11:52:06.546Z,96780.59
2023-01-19T11:54:40.039Z,96778.72
2023-01-19T11:57:13.569Z,96769.63
2023-01-19T11:59:40.890Z,96770.94
2023-01-19T12:02:21.644Z,96785.41
2023-01-19T12:04:50.535Z,96779.50
2023-01-19T12:07:24.338Z,96771.75
2023-01-19T12:09:54.032Z,96775.53
2023-01-19T12:12:28.725Z,96771.75
2023-01-19T12:15:02.305Z,96777.97
2023-01-19T12:17:35.120Z,96774.50
2023-01-19T12:20:13.669Z,96768.81
2023-01-19T12:22:45.573Z,96760.84
2023-01-19T12:25:20.919Z,96767.19
2023-01-19T12:27:49.447Z,96766.97
2023-01-19T12:30:20.377Z,96756.16
2023-01-19T12:32:49.009Z,96753.72
2023-01-19T12:35:53.319Z,96752.59
2023-01-19T12:38:32.277Z,96750.78
2023-01-19T12:41:18.531Z,96749.47
2023-01-19T12:43:46.232Z,96747.03
2023-01-19T12:46:24.283Z,96746.78
2023-01-19T12:48:53.384Z,96744.94
2023-01-19T12:51:24.197Z,96742.25
2023-01-19T12:53:53.131Z,96746.53
2023-01-19T12:56:27.434Z,96738.53
2023-01-19T12:58:54.436Z,96744.69
2023-01-19T13:01:21.548Z,96747.09
2023-01-19T13:04:02.397Z,96751.38
2023-01-19T13:07:07.879Z,96745.25
2023-01-19T13:09:37.697Z,96746.94
2023-01-19T13:12:21.380Z,96751.47
2023-01-19T13:14:48.775Z,96745.28
2023-01-19T13:17:24.508Z,96742.09
2023-01-19T13:20:00.685Z,96729.78
2023-01-19T13:23:09.414Z,96736.19
2023-01-19T13:25:36.637Z,96746.03
2023-01-19T13:28:10.053Z,96744.94
2023-01-19T13:30:46.541Z,96721.97
2023-01-19T13:33:19.720Z,96747.59
2023-01-19T13:35:54.437Z,96738.53
2023-01-19T13:38:23.599Z,96732.41
2023-01-19T13:40:51.709Z,96743.66
2023-01-19T13:43:25.299Z,96744.47
2023-01-19T13:45:53.621Z,96746.63
2023-01-19T13:48:22.745Z,96744.50
2023-01-19T13:51:02.852Z,96750.91
2023-01-19T13:53:30.164Z,96754.69
2023-01-19T13:56:08.557Z,96750.38
2023-01-19T13:58:35.685Z,96740.53
2023-01-19T14:01:02.797Z,96759.56
2023-01-19T14:03:30.135Z,96763.88
2023-01-19T14:05:57.316Z,96755.84
2023-01-19T14:08:25.838Z,96760.44
2023-01-19T14:11:02.881Z,96761.75
2023-01-19T14:13:31.900Z,96755.31
2023-01-19T14:16:04.119Z,96764.16
2023-01-19T14:18:32.743Z,96765.75
2023-01-19T14:21:01.950Z,96762.22
2023-01-19T14:23:42.409Z,96761.44
2023-01-19T14:26:44.288Z,96766.50
2023-01-19T14:29:26.019Z,96770.28
2023-01-19T14:32:05.944Z,96763.88
2023-01-19T14:34:35.873Z,96773.50
2023-01-19T14:37:04.727Z,96770.81
2023-01-19T14:39:34.917Z,96769.25
2023-01-19T14:42:04.863Z,96768.13
2023-01-19T14:44:36.150Z,96774.59
2023-01-19T14:47:03.970Z,96767.09
2023-01-19T14:49:34.170Z,96768.47
2023-01-19T14:52:03.496Z,96772.22
2023-01-19T14:54:37.144Z,96772.19
2023-01-19T14:57:04.597Z,96766.66
2023-01-19T14:59:31.719Z,96779.28
2023-01-19T15:01:58.980Z,96770.13
2023-01-19T15:04:26.133Z,96779.47
2023-01-19T15:06:55.204Z,96772.03
2023-01-19T15:09:23.039Z,96777.38
2023-01-19T15:11:52.507Z,96779.22
2023-01-19T15:14:21.038Z,96774.66
2023-01-19T15:16:48.900Z,96779.72
2023-01-19T15:19:17.334Z,96783.25
2023-01-19T15:21:44.847Z,96783.75
2023-01-19T15:24:12.846Z,96781.34
2023-01-19T15:26:42.074Z,96786.19
2023-01-19T15:29:16.750Z,96795.28
2023-01-19T15:31:43.865Z,96776.59
2023-01-19T15:34:12.455Z,96792.88
2023-01-19T15:36:39.748Z,96796.66
2023-01-19T15:39:06.822Z,96799.59
2023-01-19T15:41:34.779Z,96796.13
2023-01-19T15:44:01.903Z,96794.00
2023-01-19T15:46:30.300Z,96796.94
2023-01-19T15:48:57.460Z,96791.06
2023-01-19T15:51:26.093Z,96801.00
2023-01-19T15:53:54.647Z,96800.47
2023-01-19T15:56:23.709Z,96801.84
2023-01-19T15:58:51.603Z,96807.44
2023-01-19T16:01:20.506Z,96797.00
2023-01-19T16:03:49.579Z,96802.38
2023-01-19T16:06:18.110Z,96793.28
2023-01-19T16:08:45.255Z,96809.28
2023-01-19T16:11:14.165Z,96812.50
2023-01-19T16:13:44.943Z,96816.78
2023-01-19T16:16:15.050Z,96802.03
2023-01-19T16:18:42.167Z,96812.25
2023-01-19T16:21:10.878Z,96813.84
2023-01-19T16:23:37.951Z,96806.09
2023-01-19T16:26:07.287Z,96805.31
2023-01-19T16:28:35.840Z,96813.88
2023-01-19T16:31:03.511Z,96817.88
2023-01-19T16:33:30.609Z,96817.88
2023-01-19T16:35:57.700Z,96819.75
2023-01-19T16:38:26.111Z,96817.91
2023-01-19T16:40:53.185Z,96823.03
2023-01-19T16:43:20.275Z,96824.09
2023-01-19T16:45:58.872Z,96824.94
2023-01-19T16:48:26.719Z,96822.53
2023-01-19T16:51:04.657Z,96828.16
2023-01-19T16:53:34.006Z,96829.75
2023-01-19T16:56:04.570Z,96842.63
2023-01-19T16:58:32.142Z,96833.50
2023-01-19T17:00:59.429Z,96827.88
2023-01-19T17:03:26.565Z,96830.28
2023-01-19T17:05:53.668Z,96830.78
2023-01-19T17:08:20.798Z,96828.91
2023-01-19T17:10:49.402Z,96828.13
2023-01-19T17:13:16.508Z,96830.50
2023-01-19T17:15:43.618Z,96824.94
2023-01-19T17:18:10.738Z,96829.69
2023-01-19T17:20:37.865Z,96828.38
2023-01-19T17:23:04.994Z,96831.84
2023-01-19T17:25:32.061Z,96827.84
2023-01-19T17:28:00.505Z,96831.59
2023-01-19T17:30:27.707Z,96835.38
2023-01-19T17:32:54.903Z,96836.97
2023-01-19T17:35:21.978Z,96841.28
2023-01-19T17:37:52.909Z,96836.47
2023-01-19T17:40:20.255Z,96832.41
2023-01-19T17:42:47.308Z,96846.09
2023-01-19T17:45:15.813Z,96833.53
2023-01-19T17:47:43.135Z,96844.50
2023-01-19T17:50:11.241Z,96837.22
2023-01-19T17:52:38.576Z,96850.44
2023-01-19T17:55:06.522Z,96844.31
2023-01-19T17:57:33.615Z,96846.19
2023-01-19T18:00:01.061Z,96850.38
2023-01-19T18:02:29.499Z,96841.41
2023-01-19T18:04:56.627Z,96841.88
2023-01-19T18:07:23.780Z,96854.81
2023-01-19T18:09:50.921Z,96853.47
2023-01-19T18:12:18.242Z,96846.47
2023-01-19T18:14:45.400Z,96851.84
2023-01-19T18:17:12.462Z,96848.72
2023-01-19T18:19:40.940Z,96851.50
2023-01-19T18:22:08.091Z,96845.38
2023-01-19T18:24:35.407Z,96841.69
2023-01-19T18:27:02.475Z,96852.25
2023-01-19T18:29:29.628Z,96845.06
2023-01-19T18:31:56.761Z,96860.03
2023-01-19T18:34:23.881Z,96861.25
2023-01-19T18:36:52.437Z,96855.94
2023-01-19T18:39:19.756Z,96859.16
2023-01-19T18:41:46.838Z,96856.78
2023-01-19T18:44:13.928Z,96858.13
2023-01-19T18:46:41.132Z,96854.88
2023-01-19T18:49:08.260Z,96859.66
2023-01-19T18:51:35.443Z,96861.81
2023-01-19T18:54:04.111Z,96862.97
2023-01-19T18:56:31.222Z,96854.91
2023-01-19T18:58:58.326Z,96858.50
2023-01-19T19:01:27.470Z,96863.63
2023-01-19T19:03:55.701Z,96844.41
2023-01-19T19:06:24.080Z,96857.81
2023-01-19T19:08:52.051Z,96852.72
2023-01-19T19:11:22.428Z,96849.09
2023-01-19T19:13:52.511Z,96863.56
2023-01-19T19:16:19.785Z,96851.22
2023-01-19T19:18:47.280Z,96854.41
2023-01-19T19:21:14.418Z,96854.69
2023-01-19T19:23:41.591Z,96861.19
2023-01-19T19:26:10.655Z,96854.53
2023-01-19T19:28:40.445Z,96863.25
2023-01-19T19:31:09.822Z,96857.44
2023-01-19T19:33:38.389Z,96858.63
2023-01-19T19:36:06.764Z,96861.69
2023-01-19T19:38:34.311Z,96866.00
2023-01-19T19:41:04.948Z,96867.31
2023-01-19T19:43:32.735Z,96856.53
2023-01-19T19:46:03.197Z,96863.97
2023-01-19T19:48:30.460Z,96861.31
2023-01-19T19:51:17.007Z,96863.22
2023-01-19T19:53:45.682Z,96868.66
2023-01-19T19:56:13.091Z,96870.84
2023-01-19T19:58:41.556Z,96874.34
2023-01-19T20:01:11.616Z,96871.66
2023-01-19T20:03:39.483Z,96868.16
2023-01-19T20:06:08.601Z,96871.09
2023-01-19T20:08:36.357Z,96877.03
2023-01-19T20:11:05.367Z,96871.69
2023-01-19T20:13:32.816Z,96874.91
2023-01-19T20:16:00.998Z,96876.31
2023-01-19T20:18:29.854Z,96844.03
2023-01-19T20:20:57.068Z,96887.03
2023-01-19T20:23:24.289Z,96884.34
2023-01-19T20:25:51.551Z,96888.91
2023-01-19T20:28:19.783Z,96874.22
2023-01-19T20:30:46.940Z,96884.88
2023-01-19T20:33:14.072Z,96884.63
2023-01-19T20:35:42.485Z,96897.16
2023-01-19T20:38:09.568Z,96891.81
2023-01-19T20:40:36.661Z,96892.91
2023-01-19T20:43:03.762Z,96889.69
2023-01-19T20:45:30.855Z,96896.13
2023-01-19T20:47:57.986Z,96896.91
2023-01-19T20:50:25.048Z,96892.66
2023-01-19T20:52:53.440Z,96896.13
2023-01-19T20:55:20.538Z,96889.44
2023-01-19T20:57:47.627Z,96887.56
2023-01-19T21:00:15.297Z,96888.66
2023-01-19T21:02:42.579Z,96888.66
2023-01-19T21:05:10.336Z,96892.91
2023-01-19T21:07:37.635Z,96897.78
2023-01-19T21:10:06.554Z,96887.38
2023-01-19T21:12:33.619Z,96895.69
2023-01-19T21:15:00.969Z,96900.53
2023-01-19T21:17:28.087Z,96903.22
2023-01-19T21:19:55.175Z,96906.16
2023-01-19T21:22:22.250Z,96906.16
2023-01-19T21:24:49.350Z,96905.88
2023-01-19T21:27:17.744Z,96895.47
2023-01-19T21:29:44.831Z,96899.47
2023-01-19T21:32:11.915Z,96895.66
2023-01-19T21:34:39.079Z,96898.63
2023-01-19T21:37:06.156Z,96901.03
2023-01-19T21:39:33.291Z,96900.78
2023-01-19T21:42:00.564Z,96897.31
2023-01-19T21:44:29.015Z,96908.31
2023-01-19T21:46:56.099Z,96906.69
2023-01-19T21:49:23.150Z,96903.47
2023-01-19T21:51:50.291Z,96905.09
2023-01-19T21:54:17.632Z,96893.31
2023-01-19T21:56:44.877Z,96899.72
2023-01-19T21:59:13.688Z,96884.25
2023-01-19T22:01:44.496Z,96893.06
2023-01-19T22:04:11.831Z,96888.25
2023-01-19T22:06:39.361Z,96893.63
2023-01-19T22:09:06.661Z,96890.97
2023-01-19T22:11:33.771Z,96895.50
2023-01-19T22:14:00.903Z,96895.84
2023-01-19T22:16:29.211Z,96897.41
2023-01-19T22:19:00.146Z,96897.91
2023-01-19T22:21:29.292Z,96903.00
2023-01-19T22:23:57.981Z,96902.44
2023-01-19T22:26:25.584Z,96891.75
2023-01-19T22:28:53.815Z,96900.31
2023-01-19T22:31:21.039Z,96885.63
2023-01-19T22:33:48.330Z,96898.44
2023-01-19T22:36:19.076Z,96905.94
2023-01-19T22:38:49.542Z,96891.25
2023-01-19T22:41:19.273Z,96899.25
2023-01-19T22:43:46.765Z,96888.84
2023-01-19T22:46:17.572Z,96902.75
2023-01-19T22:48:44.954Z,96908.66
2023-01-19T22:51:12.053Z,96910.28
2023-01-19T22:53:40.776Z,96904.91
2023-01-19T22:56:12.331Z,96912.97
2023-01-19T22:58:39.491Z,96916.19
2023-01-19T23:01:07.655Z,96925.31
2023-01-19T23:03:35.231Z,96932.81
2023-01-19T23:06:03.704Z,96933.63
2023-01-19T23:08:30.815Z,96937.66
2023-01-19T23:10:59.317Z,96934.72
2023-01-19T23:13:26.395Z,96938.72
2023-01-19T23:15:53.566Z,96938.97
2023-01-19T23:18:20.687Z,96947.53
2023-01-19T23:20:47.809Z,96953.97
2023-01-19T23:23:15.065Z,96942.19
2023-01-19T23:25:42.147Z,96944.59
2023-01-19T23:28:10.572Z,96944.59
2023-01-19T23:30:37.842Z,96948.59
2023-01-19T23:33:05.070Z,96945.41
2023-01-19T23:35:34.571Z,96949.44
2023-01-19T23:38:01.660Z,96941.13
2023-01-19T23:40:28.753Z,96948.34
2023-01-19T23:42:55.859Z,96951.03
2023-01-19T23:45:24.333Z,96949.44
2023-01-19T23:47:51.469Z,96942.19
2023-01-19T23:50:18.591Z,96947.28
2023-01-19T23:52:45.683Z,96943.28
2023-01-19T23:55:13.171Z,96940.63
2023-01-19T23:57:40.417Z,96938.22
